sensor_id;sensor_type;location;lat;lon;timestamp;temperature;humidity
68912;SHT31;55953;51.650;-0.522;2023-07-31T00:01:55;16.78;85.79
68912;SHT31;55953;51.650;-0.522;2023-07-31T00:04:23;16.76;85.80
68912;SHT31;55953;51.650;-0.522;2023-07-31T00:06:50;16.74;86.02
68912;SHT31;55953;51.650;-0.522;2023-07-31T00:09:18;16.71;86.15
68912;SHT31;55953;51.650;-0.522;2023-07-31T00:11:46;16.71;86.27
68912;SHT31;55953;51.650;-0.522;2023-07-31T00:14:14;16.71;86.31
68912;SHT31;55953;51.650;-0.522;2023-07-31T00:16:42;16.71;86.33
68912;SHT31;55953;51.650;-0.522;2023-07-31T00:19:10;16.71;86.40
68912;SHT31;55953;51.650;-0.522;2023-07-31T00:21:37;16.71;86.43
68912;SHT31;55953;51.650;-0.522;2023-07-31T00:24:05;16.72;86.47
68912;SHT31;55953;51.650;-0.522;2023-07-31T00:26:33;16.71;86.55
68912;SHT31;55953;51.650;-0.522;2023-07-31T00:29:01;16.71;86.48
68912;SHT31;55953;51.650;-0.522;2023-07-31T00:31:29;16.72;86.63
68912;SHT31;55953;51.650;-0.522;2023-07-31T00:33:57;16.72;86.60
68912;SHT31;55953;51.650;-0.522;2023-07-31T00:36:24;16.75;86.54
68912;SHT31;55953;51.650;-0.522;2023-07-31T00:38:52;16.76;86.55
68912;SHT31;55953;51.650;-0.522;2023-07-31T00:41:20;16.76;86.62
68912;SHT31;55953;51.650;-0.522;2023-07-31T00:43:48;16.78;86.73
68912;SHT31;55953;51.650;-0.522;2023-07-31T00:46:16;16.78;86.65
68912;SHT31;55953;51.650;-0.522;2023-07-31T00:48:44;16.79;86.74
68912;SHT31;55953;51.650;-0.522;2023-07-31T00:51:12;16.80;86.79
68912;SHT31;55953;51.650;-0.522;2023-07-31T00:53:41;16.81;86.87
68912;SHT31;55953;51.650;-0.522;2023-07-31T00:56:11;16.81;86.83
68912;SHT31;55953;51.650;-0.522;2023-07-31T00:58:39;16.82;86.82
68912;SHT31;55953;51.650;-0.522;2023-07-31T01:01:08;16.84;86.75
68912;SHT31;55953;51.650;-0.522;2023-07-31T01:03:36;16.85;86.69
68912;SHT31;55953;51.650;-0.522;2023-07-31T01:06:08;16.87;86.73
68912;SHT31;55953;51.650;-0.522;2023-07-31T01:09:42;16.90;86.69
68912;SHT31;55953;51.650;-0.522;2023-07-31T01:12:17;16.92;86.68
68912;SHT31;55953;51.650;-0.522;2023-07-31T01:17:34;16.94;86.61
68912;SHT31;55953;51.650;-0.522;2023-07-31T01:20:03;16.93;86.65
68912;SHT31;55953;51.650;-0.522;2023-07-31T01:22:48;16.95;86.70
68912;SHT31;55953;51.650;-0.522;2023-07-31T01:31:06;16.96;86.70
68912;SHT31;55953;51.650;-0.522;2023-07-31T01:33:38;16.96;86.74
68912;SHT31;55953;51.650;-0.522;2023-07-31T01:36:07;16.97;86.91
68912;SHT31;55953;51.650;-0.522;2023-07-31T01:38:35;16.98;86.99
68912;SHT31;55953;51.650;-0.522;2023-07-31T01:41:03;16.99;86.94
68912;SHT31;55953;51.650;-0.522;2023-07-31T01:43:31;17.00;86.95
68912;SHT31;55953;51.650;-0.522;2023-07-31T01:45:59;16.99;87.07
68912;SHT31;55953;51.650;-0.522;2023-07-31T01:48:26;17.01;86.99
68912;SHT31;55953;51.650;-0.522;2023-07-31T01:50:54;17.02;87.06
68912;SHT31;55953;51.650;-0.522;2023-07-31T01:53:22;17.02;87.03
68912;SHT31;55953;51.650;-0.522;2023-07-31T01:55:51;17.02;87.06
68912;SHT31;55953;51.650;-0.522;2023-07-31T01:58:18;17.04;87.14
68912;SHT31;55953;51.650;-0.522;2023-07-31T02:00:46;17.05;87.09
68912;SHT31;55953;51.650;-0.522;2023-07-31T02:03:14;17.06;87.19
68912;SHT31;55953;51.650;-0.522;2023-07-31T02:05:45;17.08;87.18
68912;SHT31;55953;51.650;-0.522;2023-07-31T02:08:15;17.11;87.14
68912;SHT31;55953;51.650;-0.522;2023-07-31T02:10:44;17.11;87.10
68912;SHT31;55953;51.650;-0.522;2023-07-31T02:13:11;17.14;87.07
68912;SHT31;55953;51.650;-0.522;2023-07-31T02:15:39;17.13;87.15
68912;SHT31;55953;51.650;-0.522;2023-07-31T02:18:07;17.14;87.07
68912;SHT31;55953;51.650;-0.522;2023-07-31T02:20:35;17.17;87.15
68912;SHT31;55953;51.650;-0.522;2023-07-31T02:23:03;17.18;87.17
68912;SHT31;55953;51.650;-0.522;2023-07-31T02:25:31;17.19;87.23
68912;SHT31;55953;51.650;-0.522;2023-07-31T02:27:58;17.20;87.28
68912;SHT31;55953;51.650;-0.522;2023-07-31T02:30:26;17.19;87.18
68912;SHT31;55953;51.650;-0.522;2023-07-31T02:32:54;17.21;87.26
68912;SHT31;55953;51.650;-0.522;2023-07-31T02:35:22;17.20;87.30
68912;SHT31;55953;51.650;-0.522;2023-07-31T02:37:50;17.22;87.34
68912;SHT31;55953;51.650;-0.522;2023-07-31T02:40:19;17.22;87.43
68912;SHT31;55953;51.650;-0.522;2023-07-31T02:42:47;17.21;87.43
68912;SHT31;55953;51.650;-0.522;2023-07-31T02:45:15;17.19;87.49
68912;SHT31;55953;51.650;-0.522;2023-07-31T02:47:42;17.19;87.61
68912;SHT31;55953;51.650;-0.522;2023-07-31T02:50:10;17.20;87.52
68912;SHT31;55953;51.650;-0.522;2023-07-31T02:52:38;17.21;87.59
68912;SHT31;55953;51.650;-0.522;2023-07-31T02:55:06;17.21;87.76
68912;SHT31;55953;51.650;-0.522;2023-07-31T02:57:34;17.21;87.73
68912;SHT31;55953;51.650;-0.522;2023-07-31T03:00:02;17.20;87.69
68912;SHT31;55953;51.650;-0.522;2023-07-31T03:02:33;17.20;87.77
68912;SHT31;55953;51.650;-0.522;2023-07-31T03:05:01;17.22;87.71
68912;SHT31;55953;51.650;-0.522;2023-07-31T03:07:29;17.23;87.67
68912;SHT31;55953;51.650;-0.522;2023-07-31T03:09:57;17.23;87.68
68912;SHT31;55953;51.650;-0.522;2023-07-31T03:12:25;17.25;87.74
68912;SHT31;55953;51.650;-0.522;2023-07-31T03:14:54;17.25;87.83
68912;SHT31;55953;51.650;-0.522;2023-07-31T03:17:33;17.25;87.95
68912;SHT31;55953;51.650;-0.522;2023-07-31T03:20:01;17.26;87.85
68912;SHT31;55953;51.650;-0.522;2023-07-31T03:22:29;17.27;87.83
68912;SHT31;55953;51.650;-0.522;2023-07-31T03:24:57;17.28;87.89
68912;SHT31;55953;51.650;-0.522;2023-07-31T03:27:24;17.29;87.83
68912;SHT31;55953;51.650;-0.522;2023-07-31T03:29:52;17.31;87.94
68912;SHT31;55953;51.650;-0.522;2023-07-31T03:32:20;17.32;87.88
68912;SHT31;55953;51.650;-0.522;2023-07-31T03:34:49;17.34;87.87
68912;SHT31;55953;51.650;-0.522;2023-07-31T03:37:16;17.36;87.85
68912;SHT31;55953;51.650;-0.522;2023-07-31T03:39:44;17.36;87.93
68912;SHT31;55953;51.650;-0.522;2023-07-31T03:42:12;17.37;87.83
68912;SHT31;55953;51.650;-0.522;2023-07-31T03:44:40;17.40;87.80
68912;SHT31;55953;51.650;-0.522;2023-07-31T03:47:09;17.40;87.74
68912;SHT31;55953;51.650;-0.522;2023-07-31T03:49:37;17.41;87.74
68912;SHT31;55953;51.650;-0.522;2023-07-31T03:52:05;17.45;87.72
68912;SHT31;55953;51.650;-0.522;2023-07-31T03:54:34;17.47;87.62
68912;SHT31;55953;51.650;-0.522;2023-07-31T03:57:01;17.47;87.68
68912;SHT31;55953;51.650;-0.522;2023-07-31T03:59:29;17.48;87.67
68912;SHT31;55953;51.650;-0.522;2023-07-31T04:01:57;17.48;87.64
68912;SHT31;55953;51.650;-0.522;2023-07-31T04:04:25;17.49;87.71
68912;SHT31;55953;51.650;-0.522;2023-07-31T04:06:53;17.51;87.64
68912;SHT31;55953;51.650;-0.522;2023-07-31T04:09:20;17.51;87.57
68912;SHT31;55953;51.650;-0.522;2023-07-31T04:11:48;17.54;87.62
68912;SHT31;55953;51.650;-0.522;2023-07-31T04:14:16;17.57;87.57
68912;SHT31;55953;51.650;-0.522;2023-07-31T04:16:44;17.57;87.53
68912;SHT31;55953;51.650;-0.522;2023-07-31T04:19:12;17.55;87.57
68912;SHT31;55953;51.650;-0.522;2023-07-31T04:21:43;17.56;87.64
68912;SHT31;55953;51.650;-0.522;2023-07-31T04:24:11;17.55;87.57
68912;SHT31;55953;51.650;-0.522;2023-07-31T04:26:39;17.56;87.65
68912;SHT31;55953;51.650;-0.522;2023-07-31T04:29:07;17.57;87.69
68912;SHT31;55953;51.650;-0.522;2023-07-31T04:31:35;17.57;87.70
68912;SHT31;55953;51.650;-0.522;2023-07-31T04:34:06;17.58;87.70
68912;SHT31;55953;51.650;-0.522;2023-07-31T04:36:34;17.58;87.62
68912;SHT31;55953;51.650;-0.522;2023-07-31T04:39:02;17.58;87.66
68912;SHT31;55953;51.650;-0.522;2023-07-31T04:41:30;17.57;87.64
68912;SHT31;55953;51.650;-0.522;2023-07-31T04:43:58;17.60;87.65
68912;SHT31;55953;51.650;-0.522;2023-07-31T04:46:26;17.60;87.63
68912;SHT31;55953;51.650;-0.522;2023-07-31T04:48:54;17.61;87.59
68912;SHT31;55953;51.650;-0.522;2023-07-31T04:51:22;17.63;87.63
68912;SHT31;55953;51.650;-0.522;2023-07-31T04:53:50;17.66;87.57
68912;SHT31;55953;51.650;-0.522;2023-07-31T04:56:18;17.69;87.50
68912;SHT31;55953;51.650;-0.522;2023-07-31T04:58:46;17.69;87.51
68912;SHT31;55953;51.650;-0.522;2023-07-31T05:01:14;17.71;87.51
68912;SHT31;55953;51.650;-0.522;2023-07-31T05:03:41;17.68;87.59
68912;SHT31;55953;51.650;-0.522;2023-07-31T05:06:10;17.69;87.62
68912;SHT31;55953;51.650;-0.522;2023-07-31T05:08:37;17.69;87.65
68912;SHT31;55953;51.650;-0.522;2023-07-31T05:11:05;17.69;87.64
68912;SHT31;55953;51.650;-0.522;2023-07-31T05:13:33;17.67;87.65
68912;SHT31;55953;51.650;-0.522;2023-07-31T05:16:01;17.68;87.67
68912;SHT31;55953;51.650;-0.522;2023-07-31T05:18:30;17.70;87.68
68912;SHT31;55953;51.650;-0.522;2023-07-31T05:20:58;17.69;87.69
68912;SHT31;55953;51.650;-0.522;2023-07-31T05:23:25;17.68;87.77
68912;SHT31;55953;51.650;-0.522;2023-07-31T05:25:53;17.69;87.83
68912;SHT31;55953;51.650;-0.522;2023-07-31T05:28:21;17.71;87.86
68912;SHT31;55953;51.650;-0.522;2023-07-31T05:30:49;17.71;87.78
68912;SHT31;55953;51.650;-0.522;2023-07-31T05:33:17;17.73;87.90
68912;SHT31;55953;51.650;-0.522;2023-07-31T05:35:45;17.75;87.89
68912;SHT31;55953;51.650;-0.522;2023-07-31T05:38:13;17.75;87.88
68912;SHT31;55953;51.650;-0.522;2023-07-31T05:40:40;17.79;87.93
68912;SHT31;55953;51.650;-0.522;2023-07-31T05:43:10;17.81;87.84
68912;SHT31;55953;51.650;-0.522;2023-07-31T05:45:38;17.83;87.82
68912;SHT31;55953;51.650;-0.522;2023-07-31T05:48:07;17.87;87.72
68912;SHT31;55953;51.650;-0.522;2023-07-31T05:50:35;17.89;87.65
68912;SHT31;55953;51.650;-0.522;2023-07-31T05:53:06;17.92;87.51
68912;SHT31;55953;51.650;-0.522;2023-07-31T05:55:35;17.98;87.52
68912;SHT31;55953;51.650;-0.522;2023-07-31T05:58:03;18.03;87.38
68912;SHT31;55953;51.650;-0.522;2023-07-31T06:00:31;18.06;87.32
68912;SHT31;55953;51.650;-0.522;2023-07-31T06:02:59;18.12;87.18
68912;SHT31;55953;51.650;-0.522;2023-07-31T06:05:27;18.21;87.00
68912;SHT31;55953;51.650;-0.522;2023-07-31T06:07:57;18.28;86.78
68912;SHT31;55953;51.650;-0.522;2023-07-31T06:10:25;18.33;86.60
68912;SHT31;55953;51.650;-0.522;2023-07-31T06:12:53;18.41;86.40
68912;SHT31;55953;51.650;-0.522;2023-07-31T06:15:21;18.53;86.28
68912;SHT31;55953;51.650;-0.522;2023-07-31T06:17:49;18.71;86.29
68912;SHT31;55953;51.650;-0.522;2023-07-31T06:20:17;18.81;85.80
68912;SHT31;55953;51.650;-0.522;2023-07-31T06:22:45;18.87;85.65
68912;SHT31;55953;51.650;-0.522;2023-07-31T06:25:12;18.96;85.57
68912;SHT31;55953;51.650;-0.522;2023-07-31T06:27:42;19.03;85.18
68912;SHT31;55953;51.650;-0.522;2023-07-31T06:30:10;19.02;85.08
68912;SHT31;55953;51.650;-0.522;2023-07-31T06:32:38;19.00;85.13
68912;SHT31;55953;51.650;-0.522;2023-07-31T06:35:08;18.99;85.03
68912;SHT31;55953;51.650;-0.522;2023-07-31T06:37:36;18.93;84.87
68912;SHT31;55953;51.650;-0.522;2023-07-31T06:40:04;18.85;84.79
68912;SHT31;55953;51.650;-0.522;2023-07-31T06:42:35;18.78;84.92
68912;SHT31;55953;51.650;-0.522;2023-07-31T06:45:03;18.75;84.83
68912;SHT31;55953;51.650;-0.522;2023-07-31T06:47:32;18.76;84.95
68912;SHT31;55953;51.650;-0.522;2023-07-31T06:50:00;18.75;84.88
68912;SHT31;55953;51.650;-0.522;2023-07-31T06:52:27;18.78;84.92
68912;SHT31;55953;51.650;-0.522;2023-07-31T06:55:02;18.82;84.91
68912;SHT31;55953;51.650;-0.522;2023-07-31T06:57:52;18.90;84.89
68912;SHT31;55953;51.650;-0.522;2023-07-31T07:00:22;18.94;84.73
68912;SHT31;55953;51.650;-0.522;2023-07-31T07:02:51;18.98;84.83
68912;SHT31;55953;51.650;-0.522;2023-07-31T07:05:19;18.97;84.49
68912;SHT31;55953;51.650;-0.522;2023-07-31T07:07:49;18.95;84.67
68912;SHT31;55953;51.650;-0.522;2023-07-31T07:10:19;18.99;84.48
68912;SHT31;55953;51.650;-0.522;2023-07-31T07:12:47;19.00;84.44
68912;SHT31;55953;51.650;-0.522;2023-07-31T07:15:15;18.96;84.06
68912;SHT31;55953;51.650;-0.522;2023-07-31T07:17:43;18.94;84.17
68912;SHT31;55953;51.650;-0.522;2023-07-31T07:20:11;18.91;84.28
68912;SHT31;55953;51.650;-0.522;2023-07-31T07:22:38;18.91;84.13
68912;SHT31;55953;51.650;-0.522;2023-07-31T07:25:06;18.93;84.24
68912;SHT31;55953;51.650;-0.522;2023-07-31T07:27:35;19.01;84.21
68912;SHT31;55953;51.650;-0.522;2023-07-31T07:30:03;19.01;83.89
68912;SHT31;55953;51.650;-0.522;2023-07-31T07:32:33;19.02;83.88
68912;SHT31;55953;51.650;-0.522;2023-07-31T07:35:01;19.04;83.87
68912;SHT31;55953;51.650;-0.522;2023-07-31T07:37:28;19.11;84.10
68912;SHT31;55953;51.650;-0.522;2023-07-31T07:39:56;19.17;83.69
68912;SHT31;55953;51.650;-0.522;2023-07-31T07:42:24;19.21;83.82
68912;SHT31;55953;51.650;-0.522;2023-07-31T07:44:52;19.27;83.85
68912;SHT31;55953;51.650;-0.522;2023-07-31T07:47:20;19.28;83.67
68912;SHT31;55953;51.650;-0.522;2023-07-31T07:49:48;19.27;83.52
68912;SHT31;55953;51.650;-0.522;2023-07-31T07:52:19;19.31;83.51
68912;SHT31;55953;51.650;-0.522;2023-07-31T07:54:47;19.44;83.40
68912;SHT31;55953;51.650;-0.522;2023-07-31T07:57:15;19.51;82.93
68912;SHT31;55953;51.650;-0.522;2023-07-31T07:59:43;19.58;82.52
68912;SHT31;55953;51.650;-0.522;2023-07-31T08:02:11;19.71;82.33
68912;SHT31;55953;51.650;-0.522;2023-07-31T08:04:39;19.76;81.85
68912;SHT31;55953;51.650;-0.522;2023-07-31T08:07:07;19.78;81.24
68912;SHT31;55953;51.650;-0.522;2023-07-31T08:09:34;19.85;81.16
68912;SHT31;55953;51.650;-0.522;2023-07-31T08:12:02;19.95;81.04
68912;SHT31;55953;51.650;-0.522;2023-07-31T08:14:31;20.01;80.71
68912;SHT31;55953;51.650;-0.522;2023-07-31T08:17:00;20.04;80.35
68912;SHT31;55953;51.650;-0.522;2023-07-31T08:19:28;20.16;80.04
68912;SHT31;55953;51.650;-0.522;2023-07-31T08:21:56;20.22;79.44
68912;SHT31;55953;51.650;-0.522;2023-07-31T08:24:25;20.22;79.33
68912;SHT31;55953;51.650;-0.522;2023-07-31T08:26:52;20.23;78.98
68912;SHT31;55953;51.650;-0.522;2023-07-31T08:29:20;20.28;79.47
68912;SHT31;55953;51.650;-0.522;2023-07-31T08:31:48;20.30;79.24
68912;SHT31;55953;51.650;-0.522;2023-07-31T08:34:16;20.33;79.48
68912;SHT31;55953;51.650;-0.522;2023-07-31T08:36:43;20.31;78.83
68912;SHT31;55953;51.650;-0.522;2023-07-31T08:39:11;20.24;78.74
68912;SHT31;55953;51.650;-0.522;2023-07-31T08:41:39;20.22;78.90
68912;SHT31;55953;51.650;-0.522;2023-07-31T08:44:07;20.27;79.47
68912;SHT31;55953;51.650;-0.522;2023-07-31T08:46:35;20.30;79.33
68912;SHT31;55953;51.650;-0.522;2023-07-31T08:49:04;20.25;79.18
68912;SHT31;55953;51.650;-0.522;2023-07-31T08:51:36;20.17;79.14
68912;SHT31;55953;51.650;-0.522;2023-07-31T08:54:05;20.11;79.19
68912;SHT31;55953;51.650;-0.522;2023-07-31T08:56:32;20.06;79.67
68912;SHT31;55953;51.650;-0.522;2023-07-31T08:59:01;20.06;79.80
68912;SHT31;55953;51.650;-0.522;2023-07-31T09:01:33;20.08;79.47
68912;SHT31;55953;51.650;-0.522;2023-07-31T09:04:10;20.10;79.57
68912;SHT31;55953;51.650;-0.522;2023-07-31T09:06:41;20.08;79.38
68912;SHT31;55953;51.650;-0.522;2023-07-31T09:09:10;20.01;79.51
68912;SHT31;55953;51.650;-0.522;2023-07-31T09:11:39;19.94;79.84
68912;SHT31;55953;51.650;-0.522;2023-07-31T09:14:08;19.77;79.81
68912;SHT31;55953;51.650;-0.522;2023-07-31T09:16:50;19.61;80.33
68912;SHT31;55953;51.650;-0.522;2023-07-31T09:19:27;19.50;80.89
68912;SHT31;55953;51.650;-0.522;2023-07-31T09:22:01;19.48;81.28
68912;SHT31;55953;51.650;-0.522;2023-07-31T09:24:29;19.50;81.34
68912;SHT31;55953;51.650;-0.522;2023-07-31T09:27:00;19.56;81.60
68912;SHT31;55953;51.650;-0.522;2023-07-31T09:29:29;19.71;81.83
68912;SHT31;55953;51.650;-0.522;2023-07-31T09:31:57;19.83;81.64
68912;SHT31;55953;51.650;-0.522;2023-07-31T09:34:30;19.84;81.20
68912;SHT31;55953;51.650;-0.522;2023-07-31T09:37:08;19.71;80.77
68912;SHT31;55953;51.650;-0.522;2023-07-31T09:39:45;19.62;81.05
68912;SHT31;55953;51.650;-0.522;2023-07-31T09:42:23;19.64;81.13
68912;SHT31;55953;51.650;-0.522;2023-07-31T09:44:52;19.64;80.67
68912;SHT31;55953;51.650;-0.522;2023-07-31T09:47:21;19.65;80.41
68912;SHT31;55953;51.650;-0.522;2023-07-31T09:49:53;19.58;80.27
68912;SHT31;55953;51.650;-0.522;2023-07-31T09:52:21;19.53;80.55
68912;SHT31;55953;51.650;-0.522;2023-07-31T09:54:49;19.40;80.20
68912;SHT31;55953;51.650;-0.522;2023-07-31T09:57:17;19.23;80.44
68912;SHT31;55953;51.650;-0.522;2023-07-31T09:59:49;19.04;80.76
68912;SHT31;55953;51.650;-0.522;2023-07-31T10:02:23;18.91;81.27
68912;SHT31;55953;51.650;-0.522;2023-07-31T10:04:51;18.83;81.68
68912;SHT31;55953;51.650;-0.522;2023-07-31T10:07:26;18.93;81.76
68912;SHT31;55953;51.650;-0.522;2023-07-31T10:09:57;19.02;81.45
68912;SHT31;55953;51.650;-0.522;2023-07-31T10:12:31;19.06;81.64
68912;SHT31;55953;51.650;-0.522;2023-07-31T10:15:02;19.13;81.97
68912;SHT31;55953;51.650;-0.522;2023-07-31T10:17:32;19.18;81.76
68912;SHT31;55953;51.650;-0.522;2023-07-31T10:20:03;19.23;81.96
68912;SHT31;55953;51.650;-0.522;2023-07-31T10:22:34;19.35;81.51
68912;SHT31;55953;51.650;-0.522;2023-07-31T10:25:02;19.46;81.23
68912;SHT31;55953;51.650;-0.522;2023-07-31T10:27:31;19.61;81.13
68912;SHT31;55953;51.650;-0.522;2023-07-31T10:30:02;19.76;80.15
68912;SHT31;55953;51.650;-0.522;2023-07-31T10:32:33;19.86;79.69
68912;SHT31;55953;51.650;-0.522;2023-07-31T10:35:03;20.00;79.55
68912;SHT31;55953;51.650;-0.522;2023-07-31T10:37:36;20.11;79.41
68912;SHT31;55953;51.650;-0.522;2023-07-31T10:40:13;20.25;78.74
68912;SHT31;55953;51.650;-0.522;2023-07-31T10:42:51;20.28;77.93
68912;SHT31;55953;51.650;-0.522;2023-07-31T10:45:35;20.26;77.67
68912;SHT31;55953;51.650;-0.522;2023-07-31T10:48:06;20.17;77.42
68912;SHT31;55953;51.650;-0.522;2023-07-31T10:50:56;20.18;77.56
68912;SHT31;55953;51.650;-0.522;2023-07-31T10:53:33;20.21;76.90
68912;SHT31;55953;51.650;-0.522;2023-07-31T10:56:05;20.23;76.57
68912;SHT31;55953;51.650;-0.522;2023-07-31T10:58:35;20.31;76.55
68912;SHT31;55953;51.650;-0.522;2023-07-31T11:01:05;20.34;76.12
68912;SHT31;55953;51.650;-0.522;2023-07-31T11:06:17;20.25;75.86
68912;SHT31;55953;51.650;-0.522;2023-07-31T11:08:47;20.18;75.48
68912;SHT31;55953;51.650;-0.522;2023-07-31T11:11:18;20.16;75.81
68912;SHT31;55953;51.650;-0.522;2023-07-31T11:13:48;20.15;74.32
68912;SHT31;55953;51.650;-0.522;2023-07-31T11:16:23;20.24;74.79
68912;SHT31;55953;51.650;-0.522;2023-07-31T11:18:53;20.32;74.70
68912;SHT31;55953;51.650;-0.522;2023-07-31T11:21:23;20.45;74.37
68912;SHT31;55953;51.650;-0.522;2023-07-31T11:23:55;20.56;74.22
68912;SHT31;55953;51.650;-0.522;2023-07-31T11:26:27;20.65;72.95
68912;SHT31;55953;51.650;-0.522;2023-07-31T11:28:55;20.67;72.67
68912;SHT31;55953;51.650;-0.522;2023-07-31T11:31:23;20.69;73.07
68912;SHT31;55953;51.650;-0.522;2023-07-31T11:34:03;20.66;72.97
68912;SHT31;55953;51.650;-0.522;2023-07-31T11:36:33;20.57;73.84
68912;SHT31;55953;51.650;-0.522;2023-07-31T11:39:05;20.43;73.21
68912;SHT31;55953;51.650;-0.522;2023-07-31T11:41:35;20.33;73.42
68912;SHT31;55953;51.650;-0.522;2023-07-31T11:44:03;20.23;73.27
68912;SHT31;55953;51.650;-0.522;2023-07-31T11:46:50;20.15;73.79
68912;SHT31;55953;51.650;-0.522;2023-07-31T11:49:18;20.15;73.62
68912;SHT31;55953;51.650;-0.522;2023-07-31T11:51:46;20.16;73.26
68912;SHT31;55953;51.650;-0.522;2023-07-31T11:54:14;20.19;73.84
68912;SHT31;55953;51.650;-0.522;2023-07-31T11:56:43;20.13;73.72
68912;SHT31;55953;51.650;-0.522;2023-07-31T11:59:11;20.07;73.94
68912;SHT31;55953;51.650;-0.522;2023-07-31T12:01:40;19.98;73.90
68912;SHT31;55953;51.650;-0.522;2023-07-31T12:04:08;19.87;74.47
68912;SHT31;55953;51.650;-0.522;2023-07-31T12:06:36;19.77;74.24
68912;SHT31;55953;51.650;-0.522;2023-07-31T12:09:05;19.71;74.48
68912;SHT31;55953;51.650;-0.522;2023-07-31T12:11:46;19.65;74.58
68912;SHT31;55953;51.650;-0.522;2023-07-31T12:14:21;19.60;75.01
68912;SHT31;55953;51.650;-0.522;2023-07-31T12:16:57;19.54;74.95
68912;SHT31;55953;51.650;-0.522;2023-07-31T12:19:28;19.49;74.97
68912;SHT31;55953;51.650;-0.522;2023-07-31T12:22:00;19.46;74.57
68912;SHT31;55953;51.650;-0.522;2023-07-31T12:24:44;19.43;74.68
68912;SHT31;55953;51.650;-0.522;2023-07-31T12:27:12;19.41;74.74
68912;SHT31;55953;51.650;-0.522;2023-07-31T12:29:42;19.45;74.53
68912;SHT31;55953;51.650;-0.522;2023-07-31T12:32:22;19.42;74.12
68912;SHT31;55953;51.650;-0.522;2023-07-31T12:34:59;19.41;74.56
68912;SHT31;55953;51.650;-0.522;2023-07-31T12:37:28;19.33;74.31
68912;SHT31;55953;51.650;-0.522;2023-07-31T12:39:56;19.26;74.47
68912;SHT31;55953;51.650;-0.522;2023-07-31T12:42:30;19.21;74.62
68912;SHT31;55953;51.650;-0.522;2023-07-31T12:44:58;19.16;74.96
68912;SHT31;55953;51.650;-0.522;2023-07-31T12:47:26;19.10;75.21
68912;SHT31;55953;51.650;-0.522;2023-07-31T12:49:54;19.08;75.40
68912;SHT31;55953;51.650;-0.522;2023-07-31T12:52:22;19.05;75.61
68912;SHT31;55953;51.650;-0.522;2023-07-31T12:54:50;18.99;75.81
68912;SHT31;55953;51.650;-0.522;2023-07-31T12:57:17;18.95;76.00
68912;SHT31;55953;51.650;-0.522;2023-07-31T12:59:45;18.98;76.19
68912;SHT31;55953;51.650;-0.522;2023-07-31T13:02:13;19.04;76.28
68912;SHT31;55953;51.650;-0.522;2023-07-31T13:04:41;19.05;75.78
68912;SHT31;55953;51.650;-0.522;2023-07-31T13:07:08;19.08;76.68
68912;SHT31;55953;51.650;-0.522;2023-07-31T13:09:36;19.05;76.51
68912;SHT31;55953;51.650;-0.522;2023-07-31T13:12:04;18.88;76.43
68912;SHT31;55953;51.650;-0.522;2023-07-31T13:14:32;18.71;77.31
68912;SHT31;55953;51.650;-0.522;2023-07-31T13:17:00;18.61;77.78
68912;SHT31;55953;51.650;-0.522;2023-07-31T13:19:31;18.56;78.15
68912;SHT31;55953;51.650;-0.522;2023-07-31T13:21:59;18.55;78.22
68912;SHT31;55953;51.650;-0.522;2023-07-31T13:24:27;18.51;78.47
68912;SHT31;55953;51.650;-0.522;2023-07-31T13:26:56;18.50;78.83
68912;SHT31;55953;51.650;-0.522;2023-07-31T13:29:24;18.50;79.42
68912;SHT31;55953;51.650;-0.522;2023-07-31T13:31:53;18.50;79.09
68912;SHT31;55953;51.650;-0.522;2023-07-31T13:34:20;18.46;79.18
68912;SHT31;55953;51.650;-0.522;2023-07-31T13:36:48;18.45;79.45
68912;SHT31;55953;51.650;-0.522;2023-07-31T13:39:16;18.50;79.84
68912;SHT31;55953;51.650;-0.522;2023-07-31T13:41:44;18.50;79.19
68912;SHT31;55953;51.650;-0.522;2023-07-31T13:44:12;18.38;78.30
68912;SHT31;55953;51.650;-0.522;2023-07-31T13:46:39;18.24;78.20
68912;SHT31;55953;51.650;-0.522;2023-07-31T13:49:07;18.14;78.02
68912;SHT31;55953;51.650;-0.522;2023-07-31T13:51:35;18.05;78.66
68912;SHT31;55953;51.650;-0.522;2023-07-31T13:54:03;17.94;78.48
68912;SHT31;55953;51.650;-0.522;2023-07-31T13:56:31;17.87;79.14
68912;SHT31;55953;51.650;-0.522;2023-07-31T13:58:58;17.83;79.05
68912;SHT31;55953;51.650;-0.522;2023-07-31T14:01:28;17.84;79.88
68912;SHT31;55953;51.650;-0.522;2023-07-31T14:03:56;17.86;79.99
68912;SHT31;55953;51.650;-0.522;2023-07-31T14:06:23;17.88;79.94
68912;SHT31;55953;51.650;-0.522;2023-07-31T14:08:51;17.91;80.10
68912;SHT31;55953;51.650;-0.522;2023-07-31T14:11:19;17.91;79.91
68912;SHT31;55953;51.650;-0.522;2023-07-31T14:13:47;17.85;79.56
68912;SHT31;55953;51.650;-0.522;2023-07-31T14:16:15;17.79;79.25
68912;SHT31;55953;51.650;-0.522;2023-07-31T14:18:43;17.76;79.21
68912;SHT31;55953;51.650;-0.522;2023-07-31T14:21:13;17.72;79.28
68912;SHT31;55953;51.650;-0.522;2023-07-31T14:23:41;17.70;79.24
68912;SHT31;55953;51.650;-0.522;2023-07-31T14:26:09;17.68;79.23
68912;SHT31;55953;51.650;-0.522;2023-07-31T14:28:37;17.66;79.15
68912;SHT31;55953;51.650;-0.522;2023-07-31T14:31:06;17.67;79.13
68912;SHT31;55953;51.650;-0.522;2023-07-31T14:33:33;17.78;78.84
68912;SHT31;55953;51.650;-0.522;2023-07-31T14:36:01;18.08;78.64
68912;SHT31;55953;51.650;-0.522;2023-07-31T14:38:29;18.67;78.20
68912;SHT31;55953;51.650;-0.522;2023-07-31T14:40:57;18.86;76.76
68912;SHT31;55953;51.650;-0.522;2023-07-31T14:43:25;18.79;76.65
68912;SHT31;55953;51.650;-0.522;2023-07-31T14:45:53;18.72;77.20
68912;SHT31;55953;51.650;-0.522;2023-07-31T14:48:23;18.67;77.12
68912;SHT31;55953;51.650;-0.522;2023-07-31T14:50:51;18.69;77.25
68912;SHT31;55953;51.650;-0.522;2023-07-31T14:53:18;18.76;76.92
68912;SHT31;55953;51.650;-0.522;2023-07-31T14:55:46;18.94;76.28
68912;SHT31;55953;51.650;-0.522;2023-07-31T14:58:14;19.08;75.90
68912;SHT31;55953;51.650;-0.522;2023-07-31T15:00:42;19.31;75.77
68912;SHT31;55953;51.650;-0.522;2023-07-31T15:03:10;19.48;74.56
68912;SHT31;55953;51.650;-0.522;2023-07-31T15:05:38;19.53;74.71
68912;SHT31;55953;51.650;-0.522;2023-07-31T15:08:06;19.59;74.19
68912;SHT31;55953;51.650;-0.522;2023-07-31T15:10:34;19.64;73.14
68912;SHT31;55953;51.650;-0.522;2023-07-31T15:13:01;19.69;72.27
68912;SHT31;55953;51.650;-0.522;2023-07-31T15:15:29;19.64;73.32
68912;SHT31;55953;51.650;-0.522;2023-07-31T15:17:58;19.66;73.41
68912;SHT31;55953;51.650;-0.522;2023-07-31T15:20:26;19.70;73.00
68912;SHT31;55953;51.650;-0.522;2023-07-31T15:22:53;19.72;72.92
68912;SHT31;55953;51.650;-0.522;2023-07-31T15:25:22;19.66;72.45
68912;SHT31;55953;51.650;-0.522;2023-07-31T15:27:50;19.72;72.89
68912;SHT31;55953;51.650;-0.522;2023-07-31T15:30:18;19.69;72.60
68912;SHT31;55953;51.650;-0.522;2023-07-31T15:32:45;19.67;72.17
68912;SHT31;55953;51.650;-0.522;2023-07-31T15:35:16;19.59;72.22
68912;SHT31;55953;51.650;-0.522;2023-07-31T15:37:46;19.56;72.22
68912;SHT31;55953;51.650;-0.522;2023-07-31T15:40:14;19.58;72.57